Time;durP1;ratioP1;P1;durP2;ratioP2;P2;SDS_P1;SDS_P2;PMS_P1;PMS_P2;Temp;Humidity;BMP_temperature;BMP_pressure;BME280_temperature;BME280_humidity;BME280_pressure;Samples;Min_cycle;Max_cycle;Signal;HPM_P1;HPM_P2
2023/06/11 00:01:17;;;;;;;11.98;8.80;;;;;19.90;100866.00;;;;10166609;28;20873;-73
2023/06/11 00:06:21;;;;;;;14.05;9.65;;;;;19.70;100867.00;;;;10170461;28;20414;-72
2023/06/11 00:11:23;;;;;;;12.85;9.90;;;;;19.50;100866.00;;;;10168864;28;20205;-75
2023/06/11 00:16:26;;;;;;;11.55;9.73;;;;;19.40;100866.00;;;;10155167;28;20466;-77
2023/06/11 00:21:29;;;;;;;14.95;10.55;;;;;19.20;100866.00;;;;10166727;28;20209;-73
2023/06/11 00:26:33;;;;;;;10.80;9.23;;;;;19.10;100865.00;;;;10171896;28;20213;-75
2023/06/11 00:31:35;;;;;;;11.52;9.35;;;;;19.10;100855.00;;;;10177144;28;20284;-73
2023/06/11 00:36:40;;;;;;;10.32;9.32;;;;;19.20;100853.00;;;;10172367;28;20239;-74
2023/06/11 00:41:45;;;;;;;11.70;9.32;;;;;19.20;100866.00;;;;10178445;28;20233;-74
2023/06/11 00:46:51;;;;;;;10.18;9.02;;;;;19.30;100858.00;;;;10174502;28;20264;-73
2023/06/11 00:51:54;;;;;;;10.18;9.07;;;;;19.40;100856.00;;;;10174584;28;20891;-74
2023/06/11 00:56:56;;;;;;;14.40;9.23;;;;;19.50;100864.00;;;;10172992;28;20296;-74
2023/06/11 01:02:17;;;;;;;9.13;8.23;;;;;19.50;100858.00;;;;10167533;28;20232;-73
2023/06/11 01:07:21;;;;;;;11.75;8.90;;;;;19.50;100852.00;;;;10170933;28;20928;-74
2023/06/11 01:12:23;;;;;;;10.13;9.05;;;;;19.40;100857.00;;;;10170877;28;20893;-74
2023/06/11 01:17:40;;;;;;;10.52;9.50;;;;;19.30;100859.00;;;;10170401;28;20251;-73
2023/06/11 01:22:49;;;;;;;15.45;9.93;;;;;19.20;100867.00;;;;10171023;28;20602;-74
2023/06/11 01:28:03;;;;;;;10.30;9.15;;;;;19.00;100860.00;;;;10141100;28;20210;-73
2023/06/11 01:33:06;;;;;;;11.50;9.50;;;;;18.90;100871.00;;;;10156551;28;21948;-73
2023/06/11 01:38:13;;;;;;;10.35;9.27;;;;;18.80;100865.00;;;;10197985;28;20822;-73
2023/06/11 01:43:25;;;;;;;10.90;9.80;;;;;18.80;100866.00;;;;10174007;28;20240;-74
2023/06/11 01:48:27;;;;;;;12.90;9.75;;;;;18.70;100870.00;;;;10174765;28;20631;-74
2023/06/11 01:53:30;;;;;;;12.43;9.23;;;;;18.60;100864.00;;;;10175928;28;20209;-73
2023/06/11 01:58:32;;;;;;;11.27;9.48;;;;;18.60;100868.00;;;;10175818;28;20648;-74
2023/06/11 02:03:35;;;;;;;14.80;10.07;;;;;18.50;100868.00;;;;10155419;28;20228;-74
2023/06/11 02:08:37;;;;;;;13.25;10.27;;;;;18.40;100872.00;;;;10178667;28;20204;-74
2023/06/11 02:13:39;;;;;;;12.02;10.50;;;;;18.30;100874.00;;;;10174918;28;21522;-73
2023/06/11 02:18:41;;;;;;;13.88;10.70;;;;;18.20;100867.00;;;;10173477;28;20216;-74
2023/06/11 02:23:44;;;;;;;12.43;10.27;;;;;18.10;100872.00;;;;10157523;28;21505;-74
2023/06/11 02:28:46;;;;;;;11.07;9.90;;;;;18.10;100865.00;;;;10170607;28;20219;-74
2023/06/11 02:33:48;;;;;;;12.45;10.07;;;;;18.00;100864.00;;;;10172887;28;20231;-73
2023/06/11 02:38:50;;;;;;;10.60;9.50;;;;;18.00;100868.00;;;;10173934;28;20358;-74
2023/06/11 02:43:52;;;;;;;14.65;10.95;;;;;17.90;100871.00;;;;10170018;28;20221;-73
2023/06/11 02:48:55;;;;;;;12.32;10.57;;;;;17.80;100883.00;;;;10176601;28;20236;-73
2023/06/11 02:53:57;;;;;;;13.60;10.98;;;;;17.70;100873.00;;;;10167550;28;20901;-74
2023/06/11 02:58:59;;;;;;;13.98;10.48;;;;;17.60;100877.00;;;;10174503;28;21279;-73
2023/06/11 03:04:01;;;;;;;12.80;11.18;;;;;17.50;100876.00;;;;10170276;28;20236;-73
2023/06/11 03:09:06;;;;;;;12.57;11.30;;;;;17.40;100873.00;;;;10147186;28;20210;-74
2023/06/11 03:14:10;;;;;;;13.05;10.70;;;;;17.30;100869.00;;;;10159300;28;20212;-73
2023/06/11 03:19:12;;;;;;;12.13;10.93;;;;;17.30;100872.00;;;;10173501;28;20633;-73
2023/06/11 03:24:15;;;;;;;13.13;11.07;;;;;17.30;100878.00;;;;10168710;28;20307;-74
2023/06/11 03:29:17;;;;;;;12.32;11.23;;;;;17.30;100871.00;;;;10156293;28;20298;-73
2023/06/11 03:34:26;;;;;;;12.57;11.30;;;;;17.20;100874.00;;;;10167140;28;20214;-73
2023/06/11 03:39:31;;;;;;;13.13;10.88;;;;;17.10;100877.00;;;;10173595;28;20647;-73
2023/06/11 03:44:34;;;;;;;13.02;11.68;;;;;17.20;100882.00;;;;10169401;28;20308;-74
2023/06/11 03:49:36;;;;;;;13.17;11.87;;;;;17.20;100880.00;;;;10156476;28;22468;-73
2023/06/11 03:54:38;;;;;;;12.35;11.25;;;;;17.40;100876.00;;;;10140890;28;20542;-74
2023/06/11 03:59:40;;;;;;;12.05;10.85;;;;;17.60;100889.00;;;;10160773;28;20211;-74
2023/06/11 04:04:42;;;;;;;15.00;11.30;;;;;17.90;100887.00;;;;10159920;28;20228;-73
2023/06/11 04:09:45;;;;;;;12.05;10.80;;;;;18.10;100880.00;;;;10171364;28;20667;-73
2023/06/11 04:14:47;;;;;;;12.35;10.88;;;;;18.20;100877.00;;;;10162554;28;20917;-75
2023/06/11 04:19:51;;;;;;;12.25;11.05;;;;;18.20;100878.00;;;;10144226;28;21511;-73
2023/06/11 04:24:53;;;;;;;13.38;11.20;;;;;18.10;100886.00;;;;10159695;28;20229;-76
2023/06/11 04:29:56;;;;;;;13.93;10.80;;;;;18.10;100884.00;;;;10143567;28;20264;-76
2023/06/11 04:35:01;;;;;;;12.73;11.43;;;;;18.10;100889.00;;;;10161589;28;20801;-74
2023/06/11 04:40:09;;;;;;;12.55;11.18;;;;;18.30;100896.00;;;;10158308;28;20605;-75
2023/06/11 04:45:12;;;;;;;13.00;11.48;;;;;18.50;100902.00;;;;10158825;28;20233;-74
2023/06/11 04:50:20;;;;;;;14.15;11.48;;;;;18.60;100896.00;;;;10159829;28;20231;-76
2023/06/11 04:55:26;;;;;;;15.45;11.10;;;;;18.90;100903.00;;;;10155394;28;20223;-73
2023/06/11 05:00:30;;;;;;;15.70;11.38;;;;;19.20;100906.00;;;;10160907;28;20217;-76
2023/06/11 05:05:35;;;;;;;13.15;11.77;;;;;19.60;100901.00;;;;10159064;28;20256;-75
2023/06/11 05:10:38;;;;;;;14.75;11.82;;;;;20.10;100906.00;;;;10160892;28;20999;-76
2023/06/11 05:15:41;;;;;;;13.57;11.75;;;;;20.60;100907.00;;;;10161170;28;20546;-75
2023/06/11 05:20:43;;;;;;;11.88;10.77;;;;;21.00;100913.00;;;;10127823;28;20216;-74
2023/06/11 05:25:50;;;;;;;12.13;10.52;;;;;21.40;100920.00;;;;10159131;28;20220;-74
2023/06/11 05:30:55;;;;;;;11.50;10.07;;;;;21.80;100907.00;;;;10159488;28;20323;-75
2023/06/11 05:35:57;;;;;;;11.00;9.90;;;;;22.40;100907.00;;;;10151413;28;20719;-75
2023/06/11 05:41:01;;;;;;;13.85;9.82;;;;;23.00;100921.00;;;;10161108;28;20337;-74
2023/06/11 05:46:03;;;;;;;10.68;9.57;;;;;23.50;100922.00;;;;10155762;28;20742;-75
2023/06/11 05:51:07;;;;;;;10.25;9.20;;;;;23.80;100927.00;;;;10155956;28;20576;-75
2023/06/11 05:56:11;;;;;;;10.00;9.00;;;;;24.20;100920.00;;;;10141588;28;20248;-77
2023/06/11 06:01:13;;;;;;;9.85;8.85;;;;;24.60;100922.00;;;;10140981;28;20221;-75
2023/06/11 06:06:16;;;;;;;10.30;8.63;;;;;24.80;100920.00;;;;10138066;28;20224;-75
2023/06/11 06:11:18;;;;;;;14.25;8.75;;;;;25.10;100920.00;;;;10153613;28;20209;-78
2023/06/11 06:16:21;;;;;;;9.38;8.48;;;;;25.50;100928.00;;;;10160839;28;20225;-76
2023/06/11 06:21:25;;;;;;;9.85;9.05;;;;;25.80;100931.00;;;;10151339;28;20259;-75
2023/06/11 06:26:28;;;;;;;9.70;8.70;;;;;26.10;100934.00;;;;10155306;28;20644;-76
2023/06/11 06:31:30;;;;;;;9.48;8.57;;;;;26.30;100931.00;;;;10152368;28;20255;-76
2023/06/11 06:36:37;;;;;;;9.10;8.20;;;;;26.60;100934.00;;;;10154605;28;20216;-77
2023/06/11 06:41:40;;;;;;;8.98;8.18;;;;;27.10;100941.00;;;;10155012;28;20221;-77
2023/06/11 06:46:46;;;;;;;10.20;8.35;;;;;27.40;100938.00;;;;10150866;28;20720;-78
2023/06/11 06:51:49;;;;;;;9.15;8.25;;;;;27.70;100936.00;;;;10154920;28;20777;-77
2023/06/11 06:56:51;;;;;;;9.13;8.18;;;;;28.30;100935.00;;;;10165343;28;20204;-77
2023/06/11 07:01:53;;;;;;;8.75;7.95;;;;;29.00;100930.00;;;;10169931;28;20486;-76
2023/06/11 07:06:57;;;;;;;7.60;6.90;;;;;29.50;100939.00;;;;10186298;28;20295;-75
2023/06/11 07:11:59;;;;;;;7.30;6.55;;;;;29.90;100939.00;;;;10183104;28;20212;-75
2023/06/11 07:17:03;;;;;;;7.70;6.28;;;;;30.10;100940.00;;;;10168380;28;20211;-74
2023/06/11 07:22:05;;;;;;;7.20;6.55;;;;;30.60;100926.00;;;;10155122;28;20703;-79
2023/06/11 07:27:11;;;;;;;7.32;6.63;;;;;30.80;100931.00;;;;10156407;28;20315;-77
2023/06/11 07:32:13;;;;;;;9.52;6.20;;;;;31.20;100941.00;;;;10161268;28;20259;-76
2023/06/11 07:37:16;;;;;;;7.30;6.25;;;;;31.60;100942.00;;;;10147744;28;20209;-77
2023/06/11 07:42:18;;;;;;;7.95;6.63;;;;;31.80;100938.00;;;;10162234;28;20534;-76
2023/06/11 07:47:20;;;;;;;6.53;5.75;;;;;31.90;100949.00;;;;10160806;28;20225;-75
2023/06/11 07:52:22;;;;;;;6.75;6.03;;;;;32.00;100950.00;;;;10184132;28;20401;-76
2023/06/11 07:57:25;;;;;;;7.45;6.75;;;;;32.30;100956.00;;;;10144566;28;20607;-77
2023/06/11 08:02:27;;;;;;;7.97;6.72;;;;;32.60;100937.00;;;;10161996;28;20886;-75
2023/06/11 08:07:30;;;;;;;6.88;6.28;;;;;32.80;100940.00;;;;10164479;28;20671;-77
2023/06/11 08:12:31;;;;;;;6.45;5.85;;;;;32.80;100944.00;;;;10164532;28;20222;-80
2023/06/11 08:17:34;;;;;;;7.00;6.35;;;;;33.20;100937.00;;;;10168145;28;21330;-76
2023/06/11 08:22:36;;;;;;;7.28;6.13;;;;;33.80;100930.00;;;;10173291;28;21368;-74
2023/06/11 08:27:38;;;;;;;6.55;6.00;;;;;34.30;100931.00;;;;10169427;28;20213;-77
2023/06/11 08:32:40;;;;;;;6.65;6.05;;;;;34.80;100931.00;;;;10163287;28;20612;-75
2023/06/11 08:37:42;;;;;;;6.78;6.15;;;;;34.80;100931.00;;;;10161686;28;21334;-81
2023/06/11 08:42:46;;;;;;;7.18;6.47;;;;;35.10;100919.00;;;;10162872;28;21294;-78
2023/06/11 08:47:50;;;;;;;6.57;6.07;;;;;34.80;100922.00;;;;10163377;28;21511;-77
2023/06/11 08:52:52;;;;;;;7.03;6.38;;;;;34.80;100923.00;;;;10160057;28;20665;-75
2023/06/11 08:57:54;;;;;;;7.18;6.20;;;;;34.70;100918.00;;;;10155951;28;20800;-76
2023/06/11 09:02:56;;;;;;;7.13;6.45;;;;;34.80;100912.00;;;;10156851;28;20225;-73
2023/06/11 09:07:58;;;;;;;7.40;6.13;;;;;35.10;100915.00;;;;10158346;28;20213;-78
2023/06/11 09:13:00;;;;;;;8.82;6.20;;;;;35.50;100915.00;;;;10163211;28;20217;-78
2023/06/11 09:18:03;;;;;;;6.95;6.00;;;;;35.60;100909.00;;;;10168324;28;20217;-81
2023/06/11 09:23:07;;;;;;;6.95;6.35;;;;;35.90;100914.00;;;;10190224;28;20871;-76
2023/06/11 09:28:09;;;;;;;7.10;6.10;;;;;36.30;100911.00;;;;10156440;28;20214;-78
2023/06/11 09:33:17;;;;;;;8.45;6.07;;;;;36.40;100909.00;;;;10170451;28;20263;-79
2023/06/11 09:38:21;;;;;;;7.53;6.78;;;;;36.70;100909.00;;;;10176768;28;20792;-76
2023/06/11 09:43:24;;;;;;;6.50;5.90;;;;;36.80;100914.00;;;;10170661;28;21861;-76
2023/06/11 09:48:26;;;;;;;6.22;5.72;;;;;37.20;100911.00;;;;10174053;28;20593;-79
2023/06/11 09:53:29;;;;;;;8.40;5.97;;;;;37.50;100914.00;;;;10173185;28;20225;-77
2023/06/11 09:58:36;;;;;;;5.70;5.13;;;;;37.50;100915.00;;;;10165635;28;21257;-77
2023/06/11 10:03:39;;;;;;;5.80;5.25;;;;;37.70;100918.00;;;;10157061;28;20212;-76
2023/06/11 10:08:45;;;;;;;5.90;5.40;;;;;37.90;100908.00;;;;10150655;28;21659;-77
2023/06/11 10:13:59;;;;;;;5.75;5.10;;;;;37.90;100906.00;;;;10155628;28;20225;-74
2023/06/11 10:19:05;;;;;;;6.78;6.10;;;;;37.90;100909.00;;;;10178584;28;20209;-77
2023/06/11 10:24:08;;;;;;;6.82;6.22;;;;;37.60;100903.00;;;;10157028;28;20243;-78
2023/06/11 10:29:11;;;;;;;6.43;5.93;;;;;37.60;100909.00;;;;10153986;28;20244;-74
2023/06/11 10:34:14;;;;;;;6.38;5.80;;;;;38.10;100907.00;;;;10150040;28;21371;-76
2023/06/11 10:39:22;;;;;;;5.65;5.05;;;;;38.60;100909.00;;;;10152497;28;20292;-75
2023/06/11 10:44:25;;;;;;;6.45;5.50;;;;;38.80;100907.00;;;;10155698;28;20213;-77
2023/06/11 10:49:27;;;;;;;5.00;4.57;;;;;38.40;100905.00;;;;10153133;28;20215;-75
2023/06/11 10:54:34;;;;;;;5.82;5.32;;;;;38.20;100904.00;;;;10156580;28;20228;-73
2023/06/11 10:59:37;;;;;;;6.57;4.78;;;;;37.80;100903.00;;;;10155399;28;20266;-75
2023/06/11 11:04:59;;;;;;;4.32;3.90;;;;;38.10;100908.00;;;;10157905;28;20280;-77
2023/06/11 11:10:01;;;;;;;4.88;4.07;;;;;37.80;100906.00;;;;10156798;28;20248;-76
2023/06/11 11:15:04;;;;;;;4.78;4.40;;;;;38.00;100900.00;;;;10155373;28;20578;-74
2023/06/11 11:20:08;;;;;;;4.90;4.50;;;;;38.10;100904.00;;;;10159190;28;20651;-77
2023/06/11 11:25:10;;;;;;;4.50;4.10;;;;;38.40;100893.00;;;;10151081;28;20220;-75
2023/06/11 11:30:14;;;;;;;4.55;4.07;;;;;39.20;100894.00;;;;10153419;28;20562;-73
2023/06/11 11:35:18;;;;;;;9.35;4.75;;;;;39.40;100897.00;;;;10153718;28;20233;-77
2023/06/11 11:40:21;;;;;;;4.32;4.03;;;;;39.50;100892.00;;;;10152409;28;20212;-74
2023/06/11 11:45:32;;;;;;;6.60;4.18;;;;;39.90;100888.00;;;;10153019;28;21145;-74
2023/06/11 11:50:34;;;;;;;4.28;3.90;;;;;39.30;100882.00;;;;10152174;28;20240;-74
2023/06/11 11:55:40;;;;;;;5.10;4.60;;;;;40.30;100878.00;;;;10151518;28;20321;-79
2023/06/11 12:01:01;;;;;;;5.53;4.05;;;;;40.70;100867.00;;;;10155381;28;21211;-76
2023/06/11 12:06:08;;;;;;;5.10;4.60;;;;;41.30;100871.00;;;;10151974;28;20627;-75
2023/06/11 12:11:10;;;;;;;4.38;4.00;;;;;40.20;100875.00;;;;10152838;28;20223;-76
2023/06/11 12:16:12;;;;;;;5.60;4.53;;;;;39.50;100859.00;;;;10154400;28;20217;-76
2023/06/11 12:21:14;;;;;;;4.78;4.35;;;;;40.30;100860.00;;;;10161040;28;20457;-75
2023/06/11 12:26:16;;;;;;;4.90;4.40;;;;;40.00;100858.00;;;;10160408;28;20631;-75
2023/06/11 12:31:18;;;;;;;4.38;4.07;;;;;39.50;100856.00;;;;10164092;28;20458;-76
2023/06/11 12:36:20;;;;;;;4.38;4.00;;;;;39.70;100852.00;;;;10142321;28;20461;-75
2023/06/11 12:41:22;;;;;;;4.25;3.95;;;;;39.90;100844.00;;;;10160932;28;20209;-75
2023/06/11 12:46:27;;;;;;;3.95;3.65;;;;;40.50;100846.00;;;;10160504;28;20252;-75
2023/06/11 12:51:29;;;;;;;4.03;3.63;;;;;40.90;100838.00;;;;10158256;28;20729;-75
2023/06/11 12:56:31;;;;;;;3.88;3.58;;;;;41.30;100844.00;;;;10158688;28;20997;-74
2023/06/11 13:01:33;;;;;;;5.07;4.25;;;;;40.70;100831.00;;;;10159054;28;20729;-75
2023/06/11 13:06:35;;;;;;;4.70;3.88;;;;;38.10;100846.00;;;;10158568;28;20216;-76
2023/06/11 13:11:38;;;;;;;6.25;4.65;;;;;37.30;100834.00;;;;10159531;28;20910;-77
2023/06/11 13:16:40;;;;;;;5.53;4.78;;;;;38.20;100824.00;;;;10155244;28;20400;-76
2023/06/11 13:21:42;;;;;;;4.93;4.35;;;;;38.90;100817.00;;;;10159840;28;20209;-76
2023/06/11 13:26:44;;;;;;;5.53;4.35;;;;;37.00;100822.00;;;;10156578;28;20687;-74
2023/06/11 13:31:47;;;;;;;5.10;4.60;;;;;37.50;100808.00;;;;10157106;28;20309;-75
2023/06/11 13:36:55;;;;;;;4.25;3.90;;;;;38.20;100803.00;;;;10155895;28;20241;-79
2023/06/11 13:41:57;;;;;;;8.85;4.22;;;;;38.20;100816.00;;;;10161374;28;20391;-76
2023/06/11 13:47:00;;;;;;;5.20;4.30;;;;;37.40;100818.00;;;;10161239;28;20803;-75
2023/06/11 13:52:02;;;;;;;4.25;3.95;;;;;37.70;100800.00;;;;10153692;28;20209;-76
2023/06/11 13:57:04;;;;;;;4.10;3.80;;;;;37.90;100811.00;;;;10152670;28;21335;-75
2023/06/11 14:02:07;;;;;;;4.55;4.15;;;;;38.10;100801.00;;;;10158718;28;20209;-75
2023/06/11 14:07:09;;;;;;;5.05;3.72;;;;;38.10;100794.00;;;;10156395;28;20633;-78
2023/06/11 14:12:12;;;;;;;3.78;3.47;;;;;38.10;100800.00;;;;10155252;28;20775;-78
2023/06/11 14:17:14;;;;;;;4.35;3.70;;;;;38.10;100794.00;;;;10159077;28;20363;-75
2023/06/11 14:22:16;;;;;;;3.90;3.60;;;;;38.40;100788.00;;;;10156772;28;20292;-77
2023/06/11 14:27:18;;;;;;;4.15;3.75;;;;;38.40;100794.00;;;;10153249;28;20686;-76
2023/06/11 14:32:22;;;;;;;3.63;3.42;;;;;38.10;100789.00;;;;10161203;28;20227;-79
2023/06/11 14:37:24;;;;;;;4.13;3.83;;;;;38.00;100782.00;;;;10159385;28;20694;-77
2023/06/11 14:42:26;;;;;;;3.88;3.58;;;;;38.10;100779.00;;;;10152532;28;20235;-76
2023/06/11 14:47:28;;;;;;;4.75;3.63;;;;;38.70;100769.00;;;;10159213;28;20216;-77
2023/06/11 14:52:31;;;;;;;4.00;3.70;;;;;38.90;100758.00;;;;10159811;28;20463;-77
2023/06/11 14:57:34;;;;;;;4.25;3.38;;;;;39.70;100750.00;;;;10160728;28;20235;-78
2023/06/11 15:02:36;;;;;;;7.07;3.67;;;;;40.50;100751.00;;;;10162291;28;20226;-76
2023/06/11 15:07:39;;;;;;;3.90;3.50;;;;;41.10;100749.00;;;;10155929;28;20212;-77
2023/06/11 15:12:41;;;;;;;3.50;3.22;;;;;42.10;100742.00;;;;10157131;28;20267;-76
2023/06/11 15:17:43;;;;;;;3.72;3.42;;;;;42.90;100742.00;;;;10153169;28;20237;-75
2023/06/11 15:22:46;;;;;;;4.80;4.40;;;;;43.60;100741.00;;;;10158866;28;20557;-78
2023/06/11 15:27:50;;;;;;;6.88;5.25;;;;;44.40;100734.00;;;;10156761;28;20212;-79
2023/06/11 15:32:52;;;;;;;4.20;3.90;;;;;44.20;100736.00;;;;10155621;28;20300;-77
2023/06/11 15:37:56;;;;;;;4.00;3.60;;;;;40.80;100739.00;;;;10156787;28;20240;-76
2023/06/11 15:42:58;;;;;;;6.10;3.75;;;;;38.40;100734.00;;;;10156242;28;20711;-75
2023/06/11 15:48:01;;;;;;;5.28;3.45;;;;;36.50;100735.00;;;;10153635;28;20988;-77
2023/06/11 15:53:03;;;;;;;3.70;3.40;;;;;35.50;100730.00;;;;10163330;28;20213;-76
2023/06/11 15:58:05;;;;;;;3.75;3.45;;;;;35.00;100730.00;;;;10164055;28;20264;-75
2023/06/11 16:03:10;;;;;;;4.72;4.25;;;;;34.20;100727.00;;;;10165058;28;20217;-74
2023/06/11 16:08:12;;;;;;;3.60;3.30;;;;;33.90;100729.00;;;;10156944;28;20941;-75
2023/06/11 16:13:14;;;;;;;3.95;3.65;;;;;33.90;100724.00;;;;10162503;28;20208;-75
2023/06/11 16:18:16;;;;;;;4.70;3.28;;;;;33.80;100731.00;;;;10172161;28;20608;-79
2023/06/11 16:23:19;;;;;;;4.05;3.75;;;;;33.70;100731.00;;;;10159907;28;20446;-76
2023/06/11 16:28:21;;;;;;;4.78;3.60;;;;;33.50;100733.00;;;;10158790;28;20255;-75
2023/06/11 16:33:23;;;;;;;9.65;7.45;;;;;33.50;100734.00;;;;10162115;28;20739;-76
2023/06/11 16:38:26;;;;;;;4.15;3.63;;;;;33.20;100742.00;;;;10158374;28;20233;-75
2023/06/11 16:43:27;;;;;;;12.05;10.88;;;;;32.70;100737.00;;;;10158513;28;21390;-75
2023/06/11 16:48:29;;;;;;;3.60;3.30;;;;;32.10;100741.00;;;;10160729;28;20224;-76
2023/06/11 16:53:32;;;;;;;5.75;3.45;;;;;31.70;100735.00;;;;10161130;28;20244;-76
2023/06/11 16:58:34;;;;;;;4.20;3.80;;;;;31.50;100731.00;;;;10174493;28;20229;-75
2023/06/11 17:03:36;;;;;;;6.57;4.03;;;;;32.00;100728.00;;;;10188667;28;20244;-75
2023/06/11 17:08:38;;;;;;;5.20;3.55;;;;;32.30;100730.00;;;;10199064;28;20343;-78
2023/06/11 17:13:40;;;;;;;4.35;3.53;;;;;32.50;100736.00;;;;10162111;28;20218;-78
2023/06/11 17:18:42;;;;;;;3.70;3.38;;;;;32.80;100734.00;;;;10165139;28;20252;-78
2023/06/11 17:23:45;;;;;;;4.40;3.20;;;;;32.70;100727.00;;;;10171295;28;20214;-75
2023/06/11 17:28:47;;;;;;;4.05;3.47;;;;;32.30;100725.00;;;;10181524;28;20201;-77
2023/06/11 17:33:49;;;;;;;3.95;3.33;;;;;31.80;100727.00;;;;10181323;28;20206;-75
2023/06/11 17:38:52;;;;;;;3.75;3.45;;;;;31.30;100724.00;;;;10183276;28;20596;-75
2023/06/11 17:43:54;;;;;;;3.70;3.20;;;;;30.90;100732.00;;;;10183488;28;20209;-78
2023/06/11 17:48:56;;;;;;;4.55;3.65;;;;;30.60;100730.00;;;;10157055;28;20362;-77
2023/06/11 17:53:58;;;;;;;5.07;3.50;;;;;30.40;100733.00;;;;10158934;28;20288;-78
2023/06/11 17:59:01;;;;;;;4.38;3.97;;;;;30.20;100741.00;;;;10160947;28;20292;-78
2023/06/11 18:04:03;;;;;;;6.10;3.78;;;;;29.90;100750.00;;;;10171821;28;20683;-76
2023/06/11 18:09:06;;;;;;;7.75;3.50;;;;;29.60;100753.00;;;;10184919;28;21214;-75
2023/06/11 18:14:08;;;;;;;4.28;3.88;;;;;29.40;100754.00;;;;10186035;28;20248;-75
2023/06/11 18:19:10;;;;;;;7.57;3.85;;;;;29.30;100761.00;;;;10191610;28;20241;-80
2023/06/11 18:24:13;;;;;;;4.25;3.63;;;;;29.10;100775.00;;;;10168064;28;20652;-80
2023/06/11 18:29:16;;;;;;;4.82;4.35;;;;;28.80;100780.00;;;;10170038;28;20800;-79
2023/06/11 18:34:18;;;;;;;7.53;4.63;;;;;28.60;100779.00;;;;10171558;28;20228;-80
2023/06/11 18:39:20;;;;;;;8.30;4.40;;;;;28.50;100775.00;;;;10185302;28;20488;-76
2023/06/11 18:44:22;;;;;;;7.10;5.07;;;;;28.40;100771.00;;;;10167774;28;20215;-76
2023/06/11 18:49:24;;;;;;;5.35;4.57;;;;;28.40;100778.00;;;;10159288;28;20205;-75
2023/06/11 18:54:26;;;;;;;7.55;4.20;;;;;28.20;100776.00;;;;10204033;28;20291;-75
2023/06/11 18:59:28;;;;;;;11.70;4.50;;;;;28.10;100783.00;;;;10188995;28;21636;-76
2023/06/11 19:04:31;;;;;;;6.38;4.50;;;;;27.90;100782.00;;;;10158682;28;20248;-76
2023/06/11 19:09:33;;;;;;;5.10;4.20;;;;;27.70;100780.00;;;;10186241;28;20231;-74
2023/06/11 19:14:35;;;;;;;8.00;4.28;;;;;27.60;100778.00;;;;10171317;28;20308;-74
2023/06/11 19:19:37;;;;;;;6.18;5.00;;;;;27.40;100791.00;;;;10153562;28;20205;-77
2023/06/11 19:24:40;;;;;;;5.38;4.50;;;;;27.30;100783.00;;;;10153609;28;20249;-76
2023/06/11 19:29:42;;;;;;;5.28;4.78;;;;;27.10;100794.00;;;;10170862;28;20308;-77
2023/06/11 19:34:44;;;;;;;6.05;4.70;;;;;27.00;100786.00;;;;10166937;28;20287;-75
2023/06/11 19:39:46;;;;;;;5.90;5.20;;;;;26.90;100799.00;;;;10169089;28;20805;-77
2023/06/11 19:44:48;;;;;;;5.43;4.72;;;;;26.70;100804.00;;;;10171821;28;21051;-77
2023/06/11 19:49:50;;;;;;;10.20;5.10;;;;;26.60;100808.00;;;;10172955;28;20232;-77
2023/06/11 19:54:53;;;;;;;7.85;5.63;;;;;26.40;100818.00;;;;10164110;28;20236;-76
2023/06/11 19:59:55;;;;;;;7.50;5.25;;;;;26.20;100814.00;;;;10167537;28;20213;-75
2023/06/11 20:04:57;;;;;;;7.75;4.68;;;;;26.10;100817.00;;;;10165829;28;20209;-76
2023/06/11 20:09:59;;;;;;;12.38;5.40;;;;;25.90;100816.00;;;;10162399;28;20827;-76
2023/06/11 20:15:02;;;;;;;8.52;5.47;;;;;25.80;100815.00;;;;10164342;28;20333;-76
2023/06/11 20:20:06;;;;;;;7.43;5.30;;;;;25.60;100827.00;;;;10164698;28;20282;-75
2023/06/11 20:25:08;;;;;;;8.15;5.38;;;;;25.50;100823.00;;;;10163162;28;20707;-78
2023/06/11 20:30:11;;;;;;;9.80;5.47;;;;;25.40;100828.00;;;;10163881;28;20210;-77
2023/06/11 20:35:14;;;;;;;11.23;5.57;;;;;25.20;100826.00;;;;10163009;28;20232;-78
2023/06/11 20:40:16;;;;;;;7.25;5.40;;;;;25.10;100836.00;;;;10160992;28;20809;-77
2023/06/11 20:45:19;;;;;;;9.75;6.00;;;;;24.90;100851.00;;;;10164313;28;20214;-77
2023/06/11 20:50:22;;;;;;;6.03;5.50;;;;;24.60;100863.00;;;;10162684;28;20861;-77
2023/06/11 20:55:25;;;;;;;6.40;5.80;;;;;24.50;100874.00;;;;10161061;28;20288;-77
2023/06/11 21:00:27;;;;;;;6.32;5.70;;;;;24.40;100863.00;;;;10160208;28;20318;-76
2023/06/11 21:05:29;;;;;;;7.13;5.97;;;;;24.30;100867.00;;;;10157153;28;20285;-75
2023/06/11 21:10:31;;;;;;;6.68;5.50;;;;;24.20;100868.00;;;;10156461;28;20827;-78
2023/06/11 21:15:33;;;;;;;9.63;5.60;;;;;24.20;100866.00;;;;10161213;28;20397;-76
2023/06/11 21:20:40;;;;;;;6.22;5.55;;;;;24.20;100875.00;;;;10156906;28;20206;-76
2023/06/11 21:25:42;;;;;;;6.82;5.88;;;;;24.10;100877.00;;;;10161621;28;20465;-79
2023/06/11 21:30:45;;;;;;;9.80;6.00;;;;;24.10;100879.00;;;;10158119;28;21613;-77
2023/06/11 21:35:49;;;;;;;10.88;5.90;;;;;24.00;100872.00;;;;10158947;28;21488;-78
2023/06/11 21:40:52;;;;;;;9.73;5.47;;;;;23.90;100877.00;;;;10158322;28;20212;-76
2023/06/11 21:45:54;;;;;;;8.35;5.80;;;;;23.80;100882.00;;;;10160558;28;20213;-75
2023/06/11 21:50:56;;;;;;;6.63;5.88;;;;;23.60;100880.00;;;;10153919;28;21187;-77
2023/06/11 21:55:58;;;;;;;5.78;5.20;;;;;23.40;100875.00;;;;10161374;28;20228;-79
2023/06/11 22:01:01;;;;;;;7.43;6.22;;;;;23.20;100875.00;;;;10161560;28;20232;-75
2023/06/11 22:06:03;;;;;;;8.38;6.18;;;;;22.90;100879.00;;;;10156724;28;20915;-76
2023/06/11 22:11:05;;;;;;;6.63;5.32;;;;;22.70;100875.00;;;;10158293;28;21894;-75
2023/06/11 22:16:07;;;;;;;8.13;6.13;;;;;22.50;100885.00;;;;10175427;28;20271;-76
2023/06/11 22:21:13;;;;;;;6.13;5.53;;;;;22.30;100888.00;;;;10174880;28;20897;-75
2023/06/11 22:26:16;;;;;;;6.90;6.05;;;;;22.20;100895.00;;;;10175458;28;20197;-76
2023/06/11 22:31:19;;;;;;;6.40;5.80;;;;;22.00;100906.00;;;;10174133;28;20331;-74
2023/06/11 22:36:21;;;;;;;6.60;6.00;;;;;21.90;100883.00;;;;10175288;28;20244;-75
2023/06/11 22:41:24;;;;;;;8.85;6.72;;;;;21.80;100896.00;;;;10173704;28;20213;-76
2023/06/11 22:46:26;;;;;;;8.48;5.97;;;;;21.70;100892.00;;;;10177560;28;20607;-76
2023/06/11 22:51:29;;;;;;;6.65;6.05;;;;;21.60;100889.00;;;;10176181;28;20664;-76
2023/06/11 22:56:31;;;;;;;6.72;6.07;;;;;21.50;100907.00;;;;10157908;28;20244;-77
2023/06/11 23:01:36;;;;;;;6.57;5.97;;;;;21.40;100905.00;;;;10156612;28;20921;-79
2023/06/11 23:06:45;;;;;;;7.15;6.47;;;;;21.20;100905.00;;;;10160737;28;22120;-78
2023/06/11 23:11:47;;;;;;;9.48;6.40;;;;;21.00;100903.00;;;;10160890;28;20773;-77
2023/06/11 23:16:49;;;;;;;9.00;5.95;;;;;20.80;100900.00;;;;10158266;28;20241;-75
2023/06/11 23:21:55;;;;;;;7.45;6.75;;;;;20.80;100905.00;;;;10154084;28;20603;-77
2023/06/11 23:27:02;;;;;;;8.32;6.55;;;;;20.70;100906.00;;;;10157338;28;20888;-77
2023/06/11 23:32:05;;;;;;;8.00;6.90;;;;;20.60;100896.00;;;;10157493;28;20213;-74
2023/06/11 23:37:07;;;;;;;8.02;6.78;;;;;20.50;100894.00;;;;10165053;28;20240;-77
2023/06/11 23:42:09;;;;;;;8.48;6.68;;;;;20.50;100894.00;;;;10181166;28;20228;-76
2023/06/11 23:47:11;;;;;;;7.60;6.90;;;;;20.30;100902.00;;;;10156814;28;20309;-75
2023/06/11 23:52:13;;;;;;;10.13;6.70;;;;;20.10;100909.00;;;;10174014;28;20217;-77
2023/06/11 23:57:15;;;;;;;7.20;6.50;;;;;20.00;100907.00;;;;10179295;28;20229;-77
